Aérodrome :
LOGIN :

S'inscrire | Disclaimer

   EN    FR    IT 

 










Légende :    VFR   VFR Marginal   IFR   IFR Intensif   IFR Très Intensif
Visi : 
Plafond : 
>= 8 km
>= 3000ft
5 à 8 km
1000 à 3000 ft
1500m à 5 km
500 à 1000 ft
800 à 1500m
200 à 500 ft
< 800m
< 200 ft
Symboles :   Orages  Brouillard  Fortes neiges  Fortes précipitations  Vent > 20 kt
SIGMETs :   Divers  Orages  Givrage  Turbulence  Onde Orograph.  Cendres Volcan.






- Altitude de l'aérodrome : 481 ft
- Code IATA : DNK


UKDD - Dnipropetrovs'k

DERNIER METAR :
  • 031830Z 24002MPS 200V260 CAVOK 06/M09 Q1015 R26/090070 NOSIG

METARs EXPIRÉS :
  • 031800Z 23002MPS CAVOK 06/M09 Q1015 R26/090070 NOSIG
  • 031730Z 23002MPS CAVOK 07/M09 Q1014 R26/090070 NOSIG
  • 031700Z 23002MPS CAVOK 08/M09 Q1014 R26/090070 NOSIG
  • 031630Z 24002MPS 170V270 CAVOK 08/M09 Q1014 R26/090070 NOSIG
  • 031600Z 24003MPS 210V280 CAVOK 09/M08 Q1013 R26/090070 NOSIG

TAF TAF UKDD
Valide du 03 à 18h jusqu'au 04 à 18h UTC


031705Z 0318/0418 22005MPS CAVOK TX14/0412Z TNM01/0403Z
BECMG 0405/0407 28006MPS
BECMG 0412/0414 31005MPS



MET'MAP, la Météo Aéronautique d'un coup d'oeil ! - Copyright ORBIFLY Décembre 2007 - Disclaimer

ORBIFLY MET'MAP TEAM :

Programmation & Développement : Alexandra Zaïnal
Sur une idée originale de : Baudouin d'Aumeries
Assistance à la programmation : Marc-Olivier Méhu
Soutien technique & logistique : Manuel Goepfert

Contact : metmap@orbifly.com




SOURCES & CREDITS :

   NOAA